Mid Delta Regional Airport
KGLH : now visible

Airfield :











YOU CAN JOIN US ON...

 
LOGIN :

Register | Disclaimer

   EN    FR    IT 

 









Legend :    VFR   Marginal VFR   IFR   Intensive IFR   Very Intensive IFR
Visi :
Ceiling :
>= 8 km
>= 3000ft
5 to 8 km
1000 to 3000 ft
1500m to 5 km
500 to 1000 ft
800 to 1500m
200 to 500 ft
< 800m
< 200 ft
Symbols :   Thunderstorms  Fog  Heavy snow  Heavy precipitations  Wind > 20 kt






- Airport Elevation : 131 ft
- IATA code : GLH


KGLH - Mid Delta Regional

CURRENT METAR :
  • 121753Z 03013G19KT 10SM SCT026 BKN090 21/14 A3019 RMK AO2 SLP230 T02060144 10211 20144 58001

EXPIRED METARs :
  • 121713Z 02015G20KT 10SM SCT021 20/14 A3020 RMK AO2 T02000144
  • 121701Z 03012KT 10SM BKN021 19/14 A3020 RMK AO2 T01940144
  • 121653Z 01012KT 10SM SCT021 19/15 A3020 RMK AO2 SLP232 T01940150
  • 121553Z 03011KT 10SM SCT019 19/14 A3020 RMK AO2 SLP233 T01890139

TAF KGLH
Valid from the 12 at 18:00 until the 13 at 18:00 UTC


121722Z 1218/1318 03012KT P6SM BKN025
FM122000 03012G20KT P6SM BKN050
FM130400 01008KT P6SM SCT250
KZME FIR / North America



MET'MAP, your aeronautical weather chart ! - Copyright ORBIFLY December 2007 - Disclaimer

ORBIFLY MET'MAP TEAM :

Programming & Development : Alexandra Zaïnal
Concept & original design : Baudouin d'Aumeries
Assistance for programming : Marc-Olivier Méhu
Technical & hardware support : Manuel Goepfert

Contact : metmap@orbifly.com




SOURCES & CREDITS :

   NOAA       Earth
Advisory